sensor_id;sensor_type;location;lat;lon;timestamp;temperature;humidity
12926;DHT22;6529;50.566;9.774;2023-09-19T00:00:06;16.90;99.90
12926;DHT22;6529;50.566;9.774;2023-09-19T00:02:32;16.90;99.90
12926;DHT22;6529;50.566;9.774;2023-09-19T00:04:58;16.90;99.90
12926;DHT22;6529;50.566;9.774;2023-09-19T00:07:24;16.90;99.90
12926;DHT22;6529;50.566;9.774;2023-09-19T00:09:49;16.90;99.90
12926;DHT22;6529;50.566;9.774;2023-09-19T00:12:15;16.90;99.90
12926;DHT22;6529;50.566;9.774;2023-09-19T00:14:41;16.80;99.90
12926;DHT22;6529;50.566;9.774;2023-09-19T00:17:06;16.90;99.90
12926;DHT22;6529;50.566;9.774;2023-09-19T00:19:34;16.80;99.90
12926;DHT22;6529;50.566;9.774;2023-09-19T00:22:01;16.80;99.90
12926;DHT22;6529;50.566;9.774;2023-09-19T00:24:26;16.80;99.90
12926;DHT22;6529;50.566;9.774;2023-09-19T00:26:53;16.90;99.90
12926;DHT22;6529;50.566;9.774;2023-09-19T00:29:19;16.90;99.90
12926;DHT22;6529;50.566;9.774;2023-09-19T00:31:45;16.80;99.90
12926;DHT22;6529;50.566;9.774;2023-09-19T00:34:11;16.90;99.90
12926;DHT22;6529;50.566;9.774;2023-09-19T00:36:37;16.90;99.90
12926;DHT22;6529;50.566;9.774;2023-09-19T00:39:06;16.90;99.90
12926;DHT22;6529;50.566;9.774;2023-09-19T00:41:33;16.90;99.90
12926;DHT22;6529;50.566;9.774;2023-09-19T00:44:04;16.90;99.90
12926;DHT22;6529;50.566;9.774;2023-09-19T00:46:31;16.80;99.90
12926;DHT22;6529;50.566;9.774;2023-09-19T00:48:58;16.80;99.90
12926;DHT22;6529;50.566;9.774;2023-09-19T00:51:25;16.80;99.90
12926;DHT22;6529;50.566;9.774;2023-09-19T00:53:52;16.90;99.90
12926;DHT22;6529;50.566;9.774;2023-09-19T00:56:18;16.90;99.90
12926;DHT22;6529;50.566;9.774;2023-09-19T00:58:45;16.90;99.90
12926;DHT22;6529;50.566;9.774;2023-09-19T01:01:12;16.80;99.90
12926;DHT22;6529;50.566;9.774;2023-09-19T01:03:40;16.80;99.90
12926;DHT22;6529;50.566;9.774;2023-09-19T01:06:06;16.80;99.90
12926;DHT22;6529;50.566;9.774;2023-09-19T01:08:33;16.80;99.90
12926;DHT22;6529;50.566;9.774;2023-09-19T01:13:58;16.80;99.90
12926;DHT22;6529;50.566;9.774;2023-09-19T01:16:36;16.80;99.90
12926;DHT22;6529;50.566;9.774;2023-09-19T01:22:18;16.90;99.90
12926;DHT22;6529;50.566;9.774;2023-09-19T01:27:53;16.90;99.90
12926;DHT22;6529;50.566;9.774;2023-09-19T01:30:27;16.90;99.90
12926;DHT22;6529;50.566;9.774;2023-09-19T01:32:58;16.90;99.90
12926;DHT22;6529;50.566;9.774;2023-09-19T01:35:24;16.90;99.90
12926;DHT22;6529;50.566;9.774;2023-09-19T01:37:50;16.90;99.90
12926;DHT22;6529;50.566;9.774;2023-09-19T01:40:17;16.90;99.90
12926;DHT22;6529;50.566;9.774;2023-09-19T01:42:50;16.90;99.90
12926;DHT22;6529;50.566;9.774;2023-09-19T01:45:24;16.80;99.90
12926;DHT22;6529;50.566;9.774;2023-09-19T01:47:54;16.80;99.90
12926;DHT22;6529;50.566;9.774;2023-09-19T01:50:40;16.80;99.90
12926;DHT22;6529;50.566;9.774;2023-09-19T01:53:14;16.80;99.90
12926;DHT22;6529;50.566;9.774;2023-09-19T01:55:43;16.90;99.90
12926;DHT22;6529;50.566;9.774;2023-09-19T01:58:33;16.80;99.90
12926;DHT22;6529;50.566;9.774;2023-09-19T02:01:00;16.70;99.90
12926;DHT22;6529;50.566;9.774;2023-09-19T02:03:26;16.70;99.90
12926;DHT22;6529;50.566;9.774;2023-09-19T02:05:54;16.70;99.90
12926;DHT22;6529;50.566;9.774;2023-09-19T02:08:21;16.70;99.90
12926;DHT22;6529;50.566;9.774;2023-09-19T02:10:49;16.70;99.90
12926;DHT22;6529;50.566;9.774;2023-09-19T02:13:18;16.70;99.90
12926;DHT22;6529;50.566;9.774;2023-09-19T02:15:45;16.70;99.90
12926;DHT22;6529;50.566;9.774;2023-09-19T02:18:11;16.70;99.90
12926;DHT22;6529;50.566;9.774;2023-09-19T02:20:40;16.80;99.90
12926;DHT22;6529;50.566;9.774;2023-09-19T02:23:06;16.80;99.90
12926;DHT22;6529;50.566;9.774;2023-09-19T02:25:33;16.80;99.90
12926;DHT22;6529;50.566;9.774;2023-09-19T02:27:59;16.80;99.90
12926;DHT22;6529;50.566;9.774;2023-09-19T02:30:26;16.70;99.90
12926;DHT22;6529;50.566;9.774;2023-09-19T02:32:52;16.70;99.90
12926;DHT22;6529;50.566;9.774;2023-09-19T02:35:17;16.70;99.90
12926;DHT22;6529;50.566;9.774;2023-09-19T02:37:46;16.70;99.90
12926;DHT22;6529;50.566;9.774;2023-09-19T02:40:12;16.70;99.90
12926;DHT22;6529;50.566;9.774;2023-09-19T02:42:53;16.70;99.90
12926;DHT22;6529;50.566;9.774;2023-09-19T02:45:19;16.70;99.90
12926;DHT22;6529;50.566;9.774;2023-09-19T02:47:46;16.70;99.90
12926;DHT22;6529;50.566;9.774;2023-09-19T02:50:13;16.70;99.90
12926;DHT22;6529;50.566;9.774;2023-09-19T02:52:42;16.70;99.90
12926;DHT22;6529;50.566;9.774;2023-09-19T02:55:12;16.70;99.90
12926;DHT22;6529;50.566;9.774;2023-09-19T02:57:54;16.60;99.90
12926;DHT22;6529;50.566;9.774;2023-09-19T03:00:22;16.60;99.90
12926;DHT22;6529;50.566;9.774;2023-09-19T03:02:53;16.60;99.90
12926;DHT22;6529;50.566;9.774;2023-09-19T03:05:19;16.60;99.90
12926;DHT22;6529;50.566;9.774;2023-09-19T03:07:47;16.50;99.90
12926;DHT22;6529;50.566;9.774;2023-09-19T03:10:19;16.60;99.90
12926;DHT22;6529;50.566;9.774;2023-09-19T03:12:46;16.50;99.90
12926;DHT22;6529;50.566;9.774;2023-09-19T03:15:11;16.40;99.90
12926;DHT22;6529;50.566;9.774;2023-09-19T03:17:37;16.30;99.90
12926;DHT22;6529;50.566;9.774;2023-09-19T03:20:03;16.40;99.90
12926;DHT22;6529;50.566;9.774;2023-09-19T03:22:34;16.30;99.90
12926;DHT22;6529;50.566;9.774;2023-09-19T03:25:00;16.30;99.90
12926;DHT22;6529;50.566;9.774;2023-09-19T03:27:26;16.30;99.90
12926;DHT22;6529;50.566;9.774;2023-09-19T03:29:52;16.40;99.90
12926;DHT22;6529;50.566;9.774;2023-09-19T03:32:19;16.40;99.90
12926;DHT22;6529;50.566;9.774;2023-09-19T03:34:44;16.40;99.90
12926;DHT22;6529;50.566;9.774;2023-09-19T03:37:10;16.30;99.90
12926;DHT22;6529;50.566;9.774;2023-09-19T03:39:36;16.30;99.90
12926;DHT22;6529;50.566;9.774;2023-09-19T03:42:02;16.30;99.90
12926;DHT22;6529;50.566;9.774;2023-09-19T03:44:29;16.20;99.90
12926;DHT22;6529;50.566;9.774;2023-09-19T03:46:55;16.20;99.90
12926;DHT22;6529;50.566;9.774;2023-09-19T03:49:22;16.10;99.90
12926;DHT22;6529;50.566;9.774;2023-09-19T03:51:47;16.10;99.90
12926;DHT22;6529;50.566;9.774;2023-09-19T03:54:13;16.10;99.90
12926;DHT22;6529;50.566;9.774;2023-09-19T03:56:38;16.00;99.90
12926;DHT22;6529;50.566;9.774;2023-09-19T03:59:04;16.00;99.90
12926;DHT22;6529;50.566;9.774;2023-09-19T04:01:30;15.90;99.90
12926;DHT22;6529;50.566;9.774;2023-09-19T04:03:57;15.90;99.90
12926;DHT22;6529;50.566;9.774;2023-09-19T04:06:23;15.80;99.90
12926;DHT22;6529;50.566;9.774;2023-09-19T04:08:48;15.80;99.90
12926;DHT22;6529;50.566;9.774;2023-09-19T04:11:14;15.70;99.90
12926;DHT22;6529;50.566;9.774;2023-09-19T04:13:40;15.70;99.90
12926;DHT22;6529;50.566;9.774;2023-09-19T04:16:05;15.70;99.90
12926;DHT22;6529;50.566;9.774;2023-09-19T04:18:32;15.60;99.90
12926;DHT22;6529;50.566;9.774;2023-09-19T04:21:02;15.60;99.90
12926;DHT22;6529;50.566;9.774;2023-09-19T04:23:29;15.50;99.90
12926;DHT22;6529;50.566;9.774;2023-09-19T04:25:54;15.40;99.90
12926;DHT22;6529;50.566;9.774;2023-09-19T04:28:20;15.40;99.90
12926;DHT22;6529;50.566;9.774;2023-09-19T04:30:45;15.30;99.90
12926;DHT22;6529;50.566;9.774;2023-09-19T04:33:11;15.30;99.90
12926;DHT22;6529;50.566;9.774;2023-09-19T04:35:40;15.30;99.90
12926;DHT22;6529;50.566;9.774;2023-09-19T04:38:08;15.30;99.90
12926;DHT22;6529;50.566;9.774;2023-09-19T04:40:33;15.30;99.90
12926;DHT22;6529;50.566;9.774;2023-09-19T04:42:59;15.30;99.90
12926;DHT22;6529;50.566;9.774;2023-09-19T04:45:28;15.30;99.90
12926;DHT22;6529;50.566;9.774;2023-09-19T04:47:55;15.30;99.90
12926;DHT22;6529;50.566;9.774;2023-09-19T04:50:21;15.30;99.90
12926;DHT22;6529;50.566;9.774;2023-09-19T04:52:51;15.30;99.90
12926;DHT22;6529;50.566;9.774;2023-09-19T04:55:18;15.40;99.90
12926;DHT22;6529;50.566;9.774;2023-09-19T04:57:48;15.40;99.90
12926;DHT22;6529;50.566;9.774;2023-09-19T05:00:15;15.40;99.90
12926;DHT22;6529;50.566;9.774;2023-09-19T05:02:42;15.40;99.90
12926;DHT22;6529;50.566;9.774;2023-09-19T05:05:09;15.40;99.90
12926;DHT22;6529;50.566;9.774;2023-09-19T05:07:42;15.40;99.90
12926;DHT22;6529;50.566;9.774;2023-09-19T05:10:09;15.40;99.90
12926;DHT22;6529;50.566;9.774;2023-09-19T05:12:35;15.40;99.90
12926;DHT22;6529;50.566;9.774;2023-09-19T05:15:02;15.40;99.90
12926;DHT22;6529;50.566;9.774;2023-09-19T05:17:28;15.40;99.90
12926;DHT22;6529;50.566;9.774;2023-09-19T05:19:54;15.50;99.90
12926;DHT22;6529;50.566;9.774;2023-09-19T05:22:20;15.50;99.90
12926;DHT22;6529;50.566;9.774;2023-09-19T05:24:45;15.50;99.90
12926;DHT22;6529;50.566;9.774;2023-09-19T05:27:14;15.50;99.90
12926;DHT22;6529;50.566;9.774;2023-09-19T05:29:45;15.50;99.90
12926;DHT22;6529;50.566;9.774;2023-09-19T05:32:11;15.50;99.90
12926;DHT22;6529;50.566;9.774;2023-09-19T05:34:38;15.40;99.90
12926;DHT22;6529;50.566;9.774;2023-09-19T05:37:04;15.40;99.90
12926;DHT22;6529;50.566;9.774;2023-09-19T05:39:32;15.40;99.90
12926;DHT22;6529;50.566;9.774;2023-09-19T05:41:58;15.40;99.90
12926;DHT22;6529;50.566;9.774;2023-09-19T05:44:25;15.50;99.90
12926;DHT22;6529;50.566;9.774;2023-09-19T05:46:51;15.40;99.90
12926;DHT22;6529;50.566;9.774;2023-09-19T05:49:17;15.50;99.90
12926;DHT22;6529;50.566;9.774;2023-09-19T05:51:43;15.50;99.90
12926;DHT22;6529;50.566;9.774;2023-09-19T05:54:08;15.50;99.90
12926;DHT22;6529;50.566;9.774;2023-09-19T05:56:34;15.50;99.90
12926;DHT22;6529;50.566;9.774;2023-09-19T05:59:00;15.60;99.90
12926;DHT22;6529;50.566;9.774;2023-09-19T06:01:25;15.60;99.90
12926;DHT22;6529;50.566;9.774;2023-09-19T06:03:52;15.60;99.90
12926;DHT22;6529;50.566;9.774;2023-09-19T06:06:18;15.70;99.90
12926;DHT22;6529;50.566;9.774;2023-09-19T06:08:44;16.00;99.90
12926;DHT22;6529;50.566;9.774;2023-09-19T06:11:10;16.30;99.90
12926;DHT22;6529;50.566;9.774;2023-09-19T06:13:36;16.40;99.90
12926;DHT22;6529;50.566;9.774;2023-09-19T06:16:04;16.40;99.90
12926;DHT22;6529;50.566;9.774;2023-09-19T06:18:31;16.30;99.90
12926;DHT22;6529;50.566;9.774;2023-09-19T06:21:12;16.50;99.90
12926;DHT22;6529;50.566;9.774;2023-09-19T06:23:37;16.40;99.90
12926;DHT22;6529;50.566;9.774;2023-09-19T06:26:03;16.40;99.90
12926;DHT22;6529;50.566;9.774;2023-09-19T06:28:32;16.60;99.90
12926;DHT22;6529;50.566;9.774;2023-09-19T06:30:58;16.40;99.90
12926;DHT22;6529;50.566;9.774;2023-09-19T06:33:24;16.30;99.90
12926;DHT22;6529;50.566;9.774;2023-09-19T06:35:50;16.40;99.90
12926;DHT22;6529;50.566;9.774;2023-09-19T06:38:18;16.50;99.90
12926;DHT22;6529;50.566;9.774;2023-09-19T06:40:44;16.70;99.90
12926;DHT22;6529;50.566;9.774;2023-09-19T06:43:10;16.60;99.90
12926;DHT22;6529;50.566;9.774;2023-09-19T06:45:36;16.60;99.90
12926;DHT22;6529;50.566;9.774;2023-09-19T06:48:02;16.50;99.90
12926;DHT22;6529;50.566;9.774;2023-09-19T06:50:29;16.50;99.90
12926;DHT22;6529;50.566;9.774;2023-09-19T06:52:56;16.40;99.90
12926;DHT22;6529;50.566;9.774;2023-09-19T06:55:25;16.40;99.90
12926;DHT22;6529;50.566;9.774;2023-09-19T06:57:54;16.30;99.90
12926;DHT22;6529;50.566;9.774;2023-09-19T07:00:20;16.20;99.90
12926;DHT22;6529;50.566;9.774;2023-09-19T07:02:59;16.30;99.90
12926;DHT22;6529;50.566;9.774;2023-09-19T07:05:27;16.30;99.90
12926;DHT22;6529;50.566;9.774;2023-09-19T07:07:53;16.30;99.90
12926;DHT22;6529;50.566;9.774;2023-09-19T07:10:20;16.30;99.90
12926;DHT22;6529;50.566;9.774;2023-09-19T07:13:11;16.40;99.90
12926;DHT22;6529;50.566;9.774;2023-09-19T07:15:37;16.40;99.90
12926;DHT22;6529;50.566;9.774;2023-09-19T07:18:15;16.40;99.90
12926;DHT22;6529;50.566;9.774;2023-09-19T07:20:42;16.30;99.90
12926;DHT22;6529;50.566;9.774;2023-09-19T07:23:14;16.30;99.90
12926;DHT22;6529;50.566;9.774;2023-09-19T07:25:40;16.40;99.90
12926;DHT22;6529;50.566;9.774;2023-09-19T07:28:06;16.40;99.90
12926;DHT22;6529;50.566;9.774;2023-09-19T07:30:31;16.50;99.90
12926;DHT22;6529;50.566;9.774;2023-09-19T07:32:57;16.50;99.90
12926;DHT22;6529;50.566;9.774;2023-09-19T07:35:23;16.50;99.90
12926;DHT22;6529;50.566;9.774;2023-09-19T07:37:49;16.40;99.90
12926;DHT22;6529;50.566;9.774;2023-09-19T07:40:18;16.50;99.90
12926;DHT22;6529;50.566;9.774;2023-09-19T07:42:44;16.50;17.40
12926;DHT22;6529;50.566;9.774;2023-09-19T07:45:12;16.50;53.10
12926;DHT22;6529;50.566;9.774;2023-09-19T07:47:49;16.50;99.90
12926;DHT22;6529;50.566;9.774;2023-09-19T07:50:16;16.60;19.60
12926;DHT22;6529;50.566;9.774;2023-09-19T07:52:44;16.50;30.00
12926;DHT22;6529;50.566;9.774;2023-09-19T07:55:10;16.60;60.30
12926;DHT22;6529;50.566;9.774;2023-09-19T07:57:45;16.80;30.60
12926;DHT22;6529;50.566;9.774;2023-09-19T08:00:12;16.80;80.70
12926;DHT22;6529;50.566;9.774;2023-09-19T08:02:39;16.80;1.00
12926;DHT22;6529;50.566;9.774;2023-09-19T08:05:06;16.90;1.00
12926;DHT22;6529;50.566;9.774;2023-09-19T08:07:35;16.90;1.00
12926;DHT22;6529;50.566;9.774;2023-09-19T08:10:02;17.00;1.00
12926;DHT22;6529;50.566;9.774;2023-09-19T08:12:28;17.00;1.00
12926;DHT22;6529;50.566;9.774;2023-09-19T08:14:53;16.90;1.00
12926;DHT22;6529;50.566;9.774;2023-09-19T08:17:20;16.90;99.90
12926;DHT22;6529;50.566;9.774;2023-09-19T08:19:47;16.80;1.00
12926;DHT22;6529;50.566;9.774;2023-09-19T08:22:14;16.80;99.90
12926;DHT22;6529;50.566;9.774;2023-09-19T08:24:42;16.90;1.00
12926;DHT22;6529;50.566;9.774;2023-09-19T08:27:08;16.90;1.00
12926;DHT22;6529;50.566;9.774;2023-09-19T08:29:35;16.90;1.00
12926;DHT22;6529;50.566;9.774;2023-09-19T08:32:01;16.90;1.00
12926;DHT22;6529;50.566;9.774;2023-09-19T08:34:26;16.90;84.90
12926;DHT22;6529;50.566;9.774;2023-09-19T08:36:55;16.90;99.90
12926;DHT22;6529;50.566;9.774;2023-09-19T08:39:24;16.90;1.00
12926;DHT22;6529;50.566;9.774;2023-09-19T08:41:57;16.90;1.00
12926;DHT22;6529;50.566;9.774;2023-09-19T08:44:24;17.00;1.00
12926;DHT22;6529;50.566;9.774;2023-09-19T08:46:54;17.10;99.90
12926;DHT22;6529;50.566;9.774;2023-09-19T08:49:31;17.20;99.90
12926;DHT22;6529;50.566;9.774;2023-09-19T08:52:20;17.20;99.90
12926;DHT22;6529;50.566;9.774;2023-09-19T08:54:47;17.30;99.90
12926;DHT22;6529;50.566;9.774;2023-09-19T08:57:14;17.30;1.00
12926;DHT22;6529;50.566;9.774;2023-09-19T08:59:48;17.30;1.00
12926;DHT22;6529;50.566;9.774;2023-09-19T09:02:15;17.30;1.00
12926;DHT22;6529;50.566;9.774;2023-09-19T09:04:43;17.50;1.00
12926;DHT22;6529;50.566;9.774;2023-09-19T09:07:12;17.50;1.00
12926;DHT22;6529;50.566;9.774;2023-09-19T09:09:39;17.60;99.90
12926;DHT22;6529;50.566;9.774;2023-09-19T09:12:12;17.70;99.90
12926;DHT22;6529;50.566;9.774;2023-09-19T09:14:45;17.80;99.90
12926;DHT22;6529;50.566;9.774;2023-09-19T09:17:12;17.70;1.00
12926;DHT22;6529;50.566;9.774;2023-09-19T09:19:38;17.60;1.00
12926;DHT22;6529;50.566;9.774;2023-09-19T09:22:08;17.70;99.90
12926;DHT22;6529;50.566;9.774;2023-09-19T09:24:34;17.70;1.00
12926;DHT22;6529;50.566;9.774;2023-09-19T09:27:04;17.90;99.90
12926;DHT22;6529;50.566;9.774;2023-09-19T09:29:42;17.90;41.70
12926;DHT22;6529;50.566;9.774;2023-09-19T09:32:28;18.00;1.00
12926;DHT22;6529;50.566;9.774;2023-09-19T09:34:59;18.10;1.00
12926;DHT22;6529;50.566;9.774;2023-09-19T09:37:25;18.10;56.60
12926;DHT22;6529;50.566;9.774;2023-09-19T09:39:59;18.20;1.00
12926;DHT22;6529;50.566;9.774;2023-09-19T09:42:44;18.20;1.00
12926;DHT22;6529;50.566;9.774;2023-09-19T09:45:22;18.30;99.90
12926;DHT22;6529;50.566;9.774;2023-09-19T09:48:14;18.30;99.90
12926;DHT22;6529;50.566;9.774;2023-09-19T09:50:47;18.00;1.00
12926;DHT22;6529;50.566;9.774;2023-09-19T09:53:25;18.10;1.00
12926;DHT22;6529;50.566;9.774;2023-09-19T09:58:35;18.20;99.90
12926;DHT22;6529;50.566;9.774;2023-09-19T10:01:03;18.10;99.90
12926;DHT22;6529;50.566;9.774;2023-09-19T10:03:38;18.00;99.90
12926;DHT22;6529;50.566;9.774;2023-09-19T10:06:15;18.00;1.00
12926;DHT22;6529;50.566;9.774;2023-09-19T10:11:41;18.50;99.90
12926;DHT22;6529;50.566;9.774;2023-09-19T10:14:13;18.40;1.00
12926;DHT22;6529;50.566;9.774;2023-09-19T10:16:45;18.50;1.00
12926;DHT22;6529;50.566;9.774;2023-09-19T10:19:23;18.70;1.00
12926;DHT22;6529;50.566;9.774;2023-09-19T10:21:50;18.80;99.90
12926;DHT22;6529;50.566;9.774;2023-09-19T10:24:18;18.90;99.90
12926;DHT22;6529;50.566;9.774;2023-09-19T10:26:45;19.00;99.90
12926;DHT22;6529;50.566;9.774;2023-09-19T10:29:14;18.80;1.00
12926;DHT22;6529;50.566;9.774;2023-09-19T10:31:41;18.90;12.80
12926;DHT22;6529;50.566;9.774;2023-09-19T10:34:16;19.00;1.00
12926;DHT22;6529;50.566;9.774;2023-09-19T10:36:45;19.10;97.30
12926;DHT22;6529;50.566;9.774;2023-09-19T10:39:14;19.20;99.90
12926;DHT22;6529;50.566;9.774;2023-09-19T10:41:50;19.30;99.90
12926;DHT22;6529;50.566;9.774;2023-09-19T10:44:25;19.20;1.00
12926;DHT22;6529;50.566;9.774;2023-09-19T10:46:54;19.10;1.00
12926;DHT22;6529;50.566;9.774;2023-09-19T10:49:21;19.00;1.00
12926;DHT22;6529;50.566;9.774;2023-09-19T10:51:49;18.80;29.40
12926;DHT22;6529;50.566;9.774;2023-09-19T10:54:19;18.70;99.90
12926;DHT22;6529;50.566;9.774;2023-09-19T10:56:48;18.80;99.90
12926;DHT22;6529;50.566;9.774;2023-09-19T10:59:17;19.00;99.90
12926;DHT22;6529;50.566;9.774;2023-09-19T11:04:29;19.20;1.00
12926;DHT22;6529;50.566;9.774;2023-09-19T11:07:12;19.20;99.90
12926;DHT22;6529;50.566;9.774;2023-09-19T11:09:51;19.30;2.00
12926;DHT22;6529;50.566;9.774;2023-09-19T11:14:57;18.90;99.90
12926;DHT22;6529;50.566;9.774;2023-09-19T11:17:33;18.90;99.90
12926;DHT22;6529;50.566;9.774;2023-09-19T11:30:32;19.20;1.00
12926;DHT22;6529;50.566;9.774;2023-09-19T11:33:26;19.20;1.00
12926;DHT22;6529;50.566;9.774;2023-09-19T11:36:08;19.10;44.50
12926;DHT22;6529;50.566;9.774;2023-09-19T11:44:37;19.50;1.00
12926;DHT22;6529;50.566;9.774;2023-09-19T11:46:54;19.80;99.90
12926;DHT22;6529;50.566;9.774;2023-09-19T11:49:32;19.90;99.90
12926;DHT22;6529;50.566;9.774;2023-09-19T11:51:59;19.60;99.90
12926;DHT22;6529;50.566;9.774;2023-09-19T11:54:27;19.60;99.90
12926;DHT22;6529;50.566;9.774;2023-09-19T11:56:57;20.00;99.90
12926;DHT22;6529;50.566;9.774;2023-09-19T11:59:28;20.00;91.00
12926;DHT22;6529;50.566;9.774;2023-09-19T12:01:55;19.70;99.90
12926;DHT22;6529;50.566;9.774;2023-09-19T12:07:23;19.20;99.90
12926;DHT22;6529;50.566;9.774;2023-09-19T12:09:51;19.20;99.90
12926;DHT22;6529;50.566;9.774;2023-09-19T12:12:27;19.10;1.00
12926;DHT22;6529;50.566;9.774;2023-09-19T12:14:54;19.20;1.00
12926;DHT22;6529;50.566;9.774;2023-09-19T12:17:20;19.30;1.00
12926;DHT22;6529;50.566;9.774;2023-09-19T12:19:55;19.40;99.90
12926;DHT22;6529;50.566;9.774;2023-09-19T12:22:21;19.70;99.90
12926;DHT22;6529;50.566;9.774;2023-09-19T12:24:47;20.10;99.90
12926;DHT22;6529;50.566;9.774;2023-09-19T12:27:13;20.10;12.80
12926;DHT22;6529;50.566;9.774;2023-09-19T12:29:47;20.00;96.50
12926;DHT22;6529;50.566;9.774;2023-09-19T12:32:16;19.70;24.40
12926;DHT22;6529;50.566;9.774;2023-09-19T12:34:51;19.40;99.90
12926;DHT22;6529;50.566;9.774;2023-09-19T12:37:17;19.40;99.90
12926;DHT22;6529;50.566;9.774;2023-09-19T12:39:51;19.70;99.90
12926;DHT22;6529;50.566;9.774;2023-09-19T12:42:23;20.20;57.20
12926;DHT22;6529;50.566;9.774;2023-09-19T12:44:50;20.20;1.00
12926;DHT22;6529;50.566;9.774;2023-09-19T12:47:20;20.60;1.00
12926;DHT22;6529;50.566;9.774;2023-09-19T12:52:47;20.80;1.00
12926;DHT22;6529;50.566;9.774;2023-09-19T13:00:21;21.10;1.00
12926;DHT22;6529;50.566;9.774;2023-09-19T13:05:54;21.20;1.00
12926;DHT22;6529;50.566;9.774;2023-09-19T13:08:29;21.20;1.00
12926;DHT22;6529;50.566;9.774;2023-09-19T13:11:15;21.00;1.00
12926;DHT22;6529;50.566;9.774;2023-09-19T13:16:33;20.90;1.00
12926;DHT22;6529;50.566;9.774;2023-09-19T13:18:59;21.00;1.00
12926;DHT22;6529;50.566;9.774;2023-09-19T13:21:29;21.10;1.00
12926;DHT22;6529;50.566;9.774;2023-09-19T13:23:56;21.00;1.00
12926;DHT22;6529;50.566;9.774;2023-09-19T13:26:41;20.90;1.00
12926;DHT22;6529;50.566;9.774;2023-09-19T13:29:07;20.80;1.00
12926;DHT22;6529;50.566;9.774;2023-09-19T13:31:32;20.70;1.00
12926;DHT22;6529;50.566;9.774;2023-09-19T13:33:58;20.90;1.00
12926;DHT22;6529;50.566;9.774;2023-09-19T13:36:23;20.60;1.00
12926;DHT22;6529;50.566;9.774;2023-09-19T13:38:49;20.60;1.00
12926;DHT22;6529;50.566;9.774;2023-09-19T13:41:14;20.60;1.00
12926;DHT22;6529;50.566;9.774;2023-09-19T13:43:40;20.40;1.00
12926;DHT22;6529;50.566;9.774;2023-09-19T13:46:06;20.10;1.00
12926;DHT22;6529;50.566;9.774;2023-09-19T13:48:40;20.30;1.00
12926;DHT22;6529;50.566;9.774;2023-09-19T13:51:06;20.50;1.00
12926;DHT22;6529;50.566;9.774;2023-09-19T13:53:31;20.40;1.00
12926;DHT22;6529;50.566;9.774;2023-09-19T13:55:57;20.40;1.00
12926;DHT22;6529;50.566;9.774;2023-09-19T13:58:22;20.40;1.00
12926;DHT22;6529;50.566;9.774;2023-09-19T14:00:49;20.20;1.00
12926;DHT22;6529;50.566;9.774;2023-09-19T14:03:15;19.90;1.00
12926;DHT22;6529;50.566;9.774;2023-09-19T14:05:40;20.20;1.00
12926;DHT22;6529;50.566;9.774;2023-09-19T14:08:07;20.70;1.00
12926;DHT22;6529;50.566;9.774;2023-09-19T14:10:33;20.80;1.00
12926;DHT22;6529;50.566;9.774;2023-09-19T14:13:00;20.70;1.00
12926;DHT22;6529;50.566;9.774;2023-09-19T14:15:27;20.60;1.00
12926;DHT22;6529;50.566;9.774;2023-09-19T14:17:59;20.50;1.00
12926;DHT22;6529;50.566;9.774;2023-09-19T14:20:26;19.90;1.00
12926;DHT22;6529;50.566;9.774;2023-09-19T14:22:53;19.70;1.00
12926;DHT22;6529;50.566;9.774;2023-09-19T14:25:19;20.00;1.00
12926;DHT22;6529;50.566;9.774;2023-09-19T14:27:46;20.20;1.00
12926;DHT22;6529;50.566;9.774;2023-09-19T14:30:13;20.10;1.00
12926;DHT22;6529;50.566;9.774;2023-09-19T14:32:38;20.10;1.00
12926;DHT22;6529;50.566;9.774;2023-09-19T14:35:05;20.20;1.00
12926;DHT22;6529;50.566;9.774;2023-09-19T14:37:31;20.20;1.00
12926;DHT22;6529;50.566;9.774;2023-09-19T14:39:57;20.00;1.00
12926;DHT22;6529;50.566;9.774;2023-09-19T14:42:22;19.90;1.00
12926;DHT22;6529;50.566;9.774;2023-09-19T14:44:48;19.90;17.10
12926;DHT22;6529;50.566;9.774;2023-09-19T14:47:15;20.00;1.00
12926;DHT22;6529;50.566;9.774;2023-09-19T14:49:42;19.80;1.00
12926;DHT22;6529;50.566;9.774;2023-09-19T14:52:09;19.90;1.00
12926;DHT22;6529;50.566;9.774;2023-09-19T14:54:34;19.90;1.00
12926;DHT22;6529;50.566;9.774;2023-09-19T14:57:00;20.00;1.00
12926;DHT22;6529;50.566;9.774;2023-09-19T14:59:35;20.20;1.00
12926;DHT22;6529;50.566;9.774;2023-09-19T15:02:05;20.50;1.00
12926;DHT22;6529;50.566;9.774;2023-09-19T15:04:30;20.50;1.00
12926;DHT22;6529;50.566;9.774;2023-09-19T15:06:56;20.70;1.00
12926;DHT22;6529;50.566;9.774;2023-09-19T15:09:23;20.90;1.00
12926;DHT22;6529;50.566;9.774;2023-09-19T15:11:52;20.80;1.00
12926;DHT22;6529;50.566;9.774;2023-09-19T15:14:17;21.00;1.00
12926;DHT22;6529;50.566;9.774;2023-09-19T15:16:43;20.70;1.00
12926;DHT22;6529;50.566;9.774;2023-09-19T15:19:09;20.60;1.00
12926;DHT22;6529;50.566;9.774;2023-09-19T15:21:35;20.50;1.00
12926;DHT22;6529;50.566;9.774;2023-09-19T15:24:02;20.40;1.00
12926;DHT22;6529;50.566;9.774;2023-09-19T15:26:29;20.20;1.00
12926;DHT22;6529;50.566;9.774;2023-09-19T15:28:55;20.30;1.00
12926;DHT22;6529;50.566;9.774;2023-09-19T15:31:21;20.20;1.00
12926;DHT22;6529;50.566;9.774;2023-09-19T15:33:47;20.40;1.00
12926;DHT22;6529;50.566;9.774;2023-09-19T15:36:14;20.60;1.00
12926;DHT22;6529;50.566;9.774;2023-09-19T15:39:02;20.50;1.00
12926;DHT22;6529;50.566;9.774;2023-09-19T15:41:39;20.30;1.00
12926;DHT22;6529;50.566;9.774;2023-09-19T15:44:14;20.20;1.00
12926;DHT22;6529;50.566;9.774;2023-09-19T15:46:41;20.10;1.00
12926;DHT22;6529;50.566;9.774;2023-09-19T15:49:07;20.00;1.00
12926;DHT22;6529;50.566;9.774;2023-09-19T15:51:33;20.00;1.00
12926;DHT22;6529;50.566;9.774;2023-09-19T15:53:59;20.00;1.00
12926;DHT22;6529;50.566;9.774;2023-09-19T15:56:28;20.00;1.00
12926;DHT22;6529;50.566;9.774;2023-09-19T15:58:55;20.10;1.00
12926;DHT22;6529;50.566;9.774;2023-09-19T16:01:22;20.00;1.00
12926;DHT22;6529;50.566;9.774;2023-09-19T16:06:16;20.10;1.00
12926;DHT22;6529;50.566;9.774;2023-09-19T16:08:47;19.90;1.00
12926;DHT22;6529;50.566;9.774;2023-09-19T16:11:14;19.90;1.00
12926;DHT22;6529;50.566;9.774;2023-09-19T16:13:41;19.70;1.00
12926;DHT22;6529;50.566;9.774;2023-09-19T16:16:08;19.60;1.00
12926;DHT22;6529;50.566;9.774;2023-09-19T16:18:38;19.70;88.20
12926;DHT22;6529;50.566;9.774;2023-09-19T16:21:05;19.80;1.00
12926;DHT22;6529;50.566;9.774;2023-09-19T16:23:31;19.90;7.60
12926;DHT22;6529;50.566;9.774;2023-09-19T16:26:16;19.90;1.00
12926;DHT22;6529;50.566;9.774;2023-09-19T16:28:44;19.90;39.00
12926;DHT22;6529;50.566;9.774;2023-09-19T16:31:10;19.90;1.00
12926;DHT22;6529;50.566;9.774;2023-09-19T16:33:37;19.90;78.60
12926;DHT22;6529;50.566;9.774;2023-09-19T16:36:10;19.90;99.90
12926;DHT22;6529;50.566;9.774;2023-09-19T16:38:36;20.00;97.80
12926;DHT22;6529;50.566;9.774;2023-09-19T16:41:05;19.90;99.90
12926;DHT22;6529;50.566;9.774;2023-09-19T16:43:32;19.70;11.40
12926;DHT22;6529;50.566;9.774;2023-09-19T16:46:04;19.60;59.70
12926;DHT22;6529;50.566;9.774;2023-09-19T16:48:33;19.60;99.90
12926;DHT22;6529;50.566;9.774;2023-09-19T16:51:01;19.50;85.00
12926;DHT22;6529;50.566;9.774;2023-09-19T16:53:29;19.40;99.90
12926;DHT22;6529;50.566;9.774;2023-09-19T16:55:55;19.20;99.90